Time;durP1;ratioP1;P1;durP2;ratioP2;P2;SDS_P1;SDS_P2;PMS_P1;PMS_P2;Temp;Humidity;BMP_temperature;BMP_pressure;BME280_temperature;BME280_humidity;BME280_pressure;Samples;Min_cycle;Max_cycle;Signal;HPM_P1;HPM_P2
2021/07/09 00:01:59;;;;;;;16.02;11.43;;;;;;;;;;5021239;28;20082;-75
2021/07/09 00:04:26;;;;;;;12.57;10.95;;;;;;;;;;5026143;28;20030;-76
2021/07/09 00:06:53;;;;;;;11.90;10.80;;;;;;;;;;5023457;28;20113;-75
2021/07/09 00:09:19;;;;;;;17.98;11.23;;;;;;;;;;5026190;28;20056;-75
2021/07/09 00:11:47;;;;;;;16.33;11.70;;;;;;;;;;5026381;28;20144;-75
2021/07/09 00:14:14;;;;;;;11.82;10.73;;;;;;;;;;5024852;28;20235;-75
2021/07/09 00:16:41;;;;;;;13.05;11.18;;;;;;;;;;5026045;28;20096;-75
2021/07/09 00:19:08;;;;;;;12.60;10.68;;;;;;;;;;5026033;28;20053;-75
2021/07/09 00:21:35;;;;;;;13.63;10.70;;;;;;;;;;5024988;28;20108;-75
2021/07/09 00:24:02;;;;;;;12.45;10.65;;;;;;;;;;5026362;28;20041;-75
2021/07/09 00:26:29;;;;;;;13.07;11.45;;;;;;;;;;5026110;28;20021;-75
2021/07/09 00:28:57;;;;;;;38.03;11.73;;;;;;;;;;5026109;28;20037;-74
2021/07/09 00:31:24;;;;;;;23.48;12.02;;;;;;;;;;5026682;28;20435;-75
2021/07/09 00:33:50;;;;;;;60.92;15.45;;;;;;;;;;5024627;28;20052;-75
2021/07/09 00:36:17;;;;;;;26.70;12.07;;;;;;;;;;5025696;28;20029;-75
2021/07/09 00:38:44;;;;;;;28.85;12.52;;;;;;;;;;5026141;28;20036;-75
2021/07/09 00:41:10;;;;;;;21.17;12.02;;;;;;;;;;5025773;28;20547;-75
2021/07/09 00:43:36;;;;;;;17.73;12.48;;;;;;;;;;5025970;28;20052;-75
2021/07/09 00:46:03;;;;;;;15.90;11.65;;;;;;;;;;5026049;28;20044;-76
2021/07/09 00:48:29;;;;;;;13.15;10.77;;;;;;;;;;5023294;28;20040;-76
2021/07/09 00:50:57;;;;;;;14.95;11.30;;;;;;;;;;5025868;28;20056;-76
2021/07/09 00:53:23;;;;;;;15.02;11.70;;;;;;;;;;5025689;28;20028;-75
2021/07/09 00:55:49;;;;;;;12.80;11.45;;;;;;;;;;5024812;28;20030;-75
2021/07/09 00:58:16;;;;;;;14.77;12.00;;;;;;;;;;5026163;28;20048;-75
2021/07/09 01:00:42;;;;;;;13.90;11.70;;;;;;;;;;5025431;28;20033;-75
2021/07/09 01:03:08;;;;;;;11.90;10.68;;;;;;;;;;5026319;28;20100;-75
2021/07/09 01:05:35;;;;;;;14.98;10.68;;;;;;;;;;5023456;28;20108;-75
2021/07/09 01:08:03;;;;;;;13.45;11.95;;;;;;;;;;5026171;28;20026;-75
2021/07/09 01:10:30;;;;;;;18.25;11.20;;;;;;;;;;5025365;28;20090;-75
2021/07/09 01:12:56;;;;;;;18.23;12.68;;;;;;;;;;5025025;28;20022;-75
2021/07/09 01:15:22;;;;;;;13.25;12.05;;;;;;;;;;5025865;28;20085;-75
2021/07/09 01:17:49;;;;;;;13.02;11.60;;;;;;;;;;5024915;28;20022;-75
2021/07/09 01:20:17;;;;;;;13.40;12.00;;;;;;;;;;5024955;28;20097;-75
2021/07/09 01:22:45;;;;;;;30.83;12.93;;;;;;;;;;5023836;28;20029;-75
2021/07/09 01:25:12;;;;;;;19.20;12.50;;;;;;;;;;5024974;28;20022;-75
2021/07/09 01:27:39;;;;;;;16.63;11.98;;;;;;;;;;5026118;28;20394;-76
2021/07/09 01:30:09;;;;;;;13.10;11.77;;;;;;;;;;5025278;28;20064;-76
2021/07/09 01:32:35;;;;;;;12.60;11.40;;;;;;;;;;5024358;28;20060;-75
2021/07/09 01:35:01;;;;;;;13.85;12.63;;;;;;;;;;5024458;28;20529;-75
2021/07/09 01:37:27;;;;;;;14.48;12.00;;;;;;;;;;5025502;28;20104;-74
2021/07/09 01:39:53;;;;;;;15.05;12.07;;;;;;;;;;5024014;28;20042;-75
2021/07/09 01:42:20;;;;;;;13.00;11.70;;;;;;;;;;5025067;28;20397;-75
2021/07/09 01:44:46;;;;;;;13.68;12.48;;;;;;;;;;5025677;28;20037;-75
2021/07/09 01:47:12;;;;;;;15.57;12.98;;;;;;;;;;5025179;28;20025;-75
2021/07/09 01:49:55;;;;;;;14.30;11.60;;;;;;;;;;5023869;28;20041;-74
2021/07/09 01:52:22;;;;;;;13.80;11.65;;;;;;;;;;5025065;28;20389;-75
2021/07/09 01:54:49;;;;;;;13.40;12.10;;;;;;;;;;5025097;28;20076;-75
2021/07/09 01:57:15;;;;;;;16.08;13.13;;;;;;;;;;5025027;28;20022;-75
2021/07/09 01:59:42;;;;;;;14.32;12.30;;;;;;;;;;5023394;28;20025;-75
2021/07/09 02:02:09;;;;;;;18.00;11.80;;;;;;;;;;5029052;28;20430;-75
2021/07/09 02:04:43;;;;;;;13.32;12.02;;;;;;;;;;5028734;28;20025;-75
2021/07/09 02:07:09;;;;;;;13.40;11.98;;;;;;;;;;5028578;28;20032;-74
2021/07/09 02:09:36;;;;;;;16.20;12.48;;;;;;;;;;5028363;28;20048;-75
2021/07/09 02:12:02;;;;;;;21.90;13.18;;;;;;;;;;5027436;28;20033;-74
2021/07/09 02:14:28;;;;;;;13.98;12.60;;;;;;;;;;5028180;28;20596;-75
2021/07/09 02:16:55;;;;;;;15.35;13.90;;;;;;;;;;5028902;28;20037;-75
2021/07/09 02:19:23;;;;;;;19.95;12.90;;;;;;;;;;5026875;28;20032;-76
2021/07/09 02:21:49;;;;;;;14.15;12.77;;;;;;;;;;5027421;28;20064;-75
2021/07/09 02:24:16;;;;;;;13.82;12.43;;;;;;;;;;5027901;28;20461;-75
2021/07/09 02:26:42;;;;;;;14.48;12.35;;;;;;;;;;5026662;28;20033;-75
2021/07/09 02:29:08;;;;;;;13.35;12.15;;;;;;;;;;5028713;28;20057;-75
2021/07/09 02:31:35;;;;;;;14.02;12.35;;;;;;;;;;5027970;28;20025;-75
2021/07/09 02:34:01;;;;;;;12.82;11.63;;;;;;;;;;5028990;28;20909;-75
2021/07/09 02:36:27;;;;;;;12.85;11.60;;;;;;;;;;5027446;28;20049;-74
2021/07/09 02:38:53;;;;;;;13.20;12.00;;;;;;;;;;5028020;28;20014;-74
2021/07/09 02:41:19;;;;;;;13.68;11.25;;;;;;;;;;5026762;28;20033;-74
2021/07/09 02:43:46;;;;;;;12.68;11.35;;;;;;;;;;5027753;28;20370;-74
2021/07/09 02:46:12;;;;;;;11.98;10.85;;;;;;;;;;5028027;28;20382;-75
2021/07/09 02:48:39;;;;;;;12.27;10.90;;;;;;;;;;5027670;28;20025;-75
2021/07/09 02:51:05;;;;;;;12.90;11.60;;;;;;;;;;5025896;28;20026;-75
2021/07/09 02:53:31;;;;;;;16.05;12.13;;;;;;;;;;5027333;28;20025;-75
2021/07/09 02:55:57;;;;;;;15.13;12.55;;;;;;;;;;5027658;28;20025;-75
2021/07/09 02:58:24;;;;;;;13.35;12.05;;;;;;;;;;5025191;28;20810;-75
2021/07/09 03:00:50;;;;;;;13.98;12.00;;;;;;;;;;5027843;28;20029;-75
2021/07/09 03:03:16;;;;;;;13.35;11.80;;;;;;;;;;5017830;28;20025;-75
2021/07/09 03:05:42;;;;;;;12.85;11.43;;;;;;;;;;5022550;28;20068;-75
2021/07/09 03:08:08;;;;;;;13.02;11.73;;;;;;;;;;5021181;28;20441;-74
2021/07/09 03:10:34;;;;;;;12.93;11.65;;;;;;;;;;5020770;28;20124;-75
2021/07/09 03:13:01;;;;;;;16.92;12.27;;;;;;;;;;5022131;28;20525;-74
2021/07/09 03:15:27;;;;;;;13.73;11.73;;;;;;;;;;5022625;28;20057;-75
2021/07/09 03:17:53;;;;;;;24.35;12.35;;;;;;;;;;5022402;28;20037;-75
2021/07/09 03:20:19;;;;;;;13.20;11.85;;;;;;;;;;5022285;28;20021;-74
2021/07/09 03:22:45;;;;;;;13.48;12.18;;;;;;;;;;5022150;28;20849;-74
2021/07/09 03:25:12;;;;;;;13.20;11.80;;;;;;;;;;5020354;28;20141;-74
2021/07/09 03:27:39;;;;;;;15.35;13.80;;;;;;;;;;5022678;28;20116;-74
2021/07/09 03:30:06;;;;;;;15.65;14.02;;;;;;;;;;5021764;28;20133;-74
2021/07/09 03:32:32;;;;;;;15.85;13.20;;;;;;;;;;5022347;28;20104;-74
2021/07/09 03:34:58;;;;;;;17.88;15.18;;;;;;;;;;5020610;28;20037;-74
2021/07/09 03:37:24;;;;;;;16.10;13.90;;;;;;;;;;5021566;28;20489;-74
2021/07/09 03:39:51;;;;;;;16.05;13.55;;;;;;;;;;5022392;28;20689;-74
2021/07/09 03:42:18;;;;;;;15.98;13.77;;;;;;;;;;5021575;28;20034;-74
2021/07/09 03:44:44;;;;;;;14.80;12.43;;;;;;;;;;5020966;28;20033;-74
2021/07/09 03:47:10;;;;;;;14.18;12.15;;;;;;;;;;5021855;28;20112;-75
2021/07/09 03:49:36;;;;;;;15.02;11.35;;;;;;;;;;5021762;28;20038;-74
2021/07/09 03:52:03;;;;;;;13.30;11.90;;;;;;;;;;5022184;28;20079;-75
2021/07/09 03:54:29;;;;;;;17.77;11.77;;;;;;;;;;5022251;28;20079;-76
2021/07/09 03:56:55;;;;;;;13.70;12.27;;;;;;;;;;5021110;28;20031;-74
2021/07/09 03:59:22;;;;;;;14.80;11.82;;;;;;;;;;5022526;28;20025;-75
2021/07/09 04:01:49;;;;;;;15.25;12.25;;;;;;;;;;5022455;28;20033;-74
2021/07/09 04:04:15;;;;;;;13.85;12.50;;;;;;;;;;5022035;28;20017;-74
2021/07/09 04:06:41;;;;;;;14.20;12.68;;;;;;;;;;5019732;28;20040;-74
2021/07/09 04:09:07;;;;;;;16.10;13.52;;;;;;;;;;5021726;28;20033;-75
2021/07/09 04:11:34;;;;;;;15.32;13.45;;;;;;;;;;5020364;28;20116;-75
2021/07/09 04:14:00;;;;;;;17.55;14.32;;;;;;;;;;5021896;28;20017;-75
2021/07/09 04:16:26;;;;;;;19.98;14.55;;;;;;;;;;5020963;28;20044;-75
2021/07/09 04:18:52;;;;;;;14.35;12.93;;;;;;;;;;5019761;28;20159;-75
2021/07/09 04:21:18;;;;;;;15.00;13.25;;;;;;;;;;5021577;28;20037;-74
2021/07/09 04:23:44;;;;;;;15.70;13.98;;;;;;;;;;5020682;28;20034;-72
2021/07/09 04:26:11;;;;;;;17.75;14.52;;;;;;;;;;5021698;28;20036;-77
2021/07/09 04:28:37;;;;;;;14.52;13.13;;;;;;;;;;5021381;28;20018;-76
2021/07/09 04:31:03;;;;;;;16.25;13.68;;;;;;;;;;5021502;28;20049;-78
2021/07/09 04:33:29;;;;;;;14.65;13.38;;;;;;;;;;5019618;28;20026;-77
2021/07/09 04:35:55;;;;;;;16.10;13.60;;;;;;;;;;5019353;28;20022;-77
2021/07/09 04:38:21;;;;;;;15.20;13.60;;;;;;;;;;5021814;28;20828;-76
2021/07/09 04:40:47;;;;;;;17.67;14.15;;;;;;;;;;5020698;28;20112;-74
2021/07/09 04:43:14;;;;;;;19.02;13.55;;;;;;;;;;5021235;28;20079;-74
2021/07/09 04:45:40;;;;;;;20.52;13.38;;;;;;;;;;5021061;28;20435;-76
2021/07/09 04:48:06;;;;;;;15.32;13.75;;;;;;;;;;5019701;28;20033;-75
2021/07/09 04:50:33;;;;;;;17.52;14.02;;;;;;;;;;5020757;28;20065;-75
2021/07/09 04:52:59;;;;;;;18.35;14.35;;;;;;;;;;5020876;28;20244;-75
2021/07/09 04:55:25;;;;;;;15.30;13.80;;;;;;;;;;5020632;28;20611;-75
2021/07/09 04:57:51;;;;;;;15.00;13.45;;;;;;;;;;5020721;28;20551;-76
2021/07/09 05:00:18;;;;;;;18.70;15.27;;;;;;;;;;5019676;28;20107;-75
2021/07/09 05:02:44;;;;;;;15.38;13.32;;;;;;;;;;5020949;28;20036;-75
2021/07/09 05:05:11;;;;;;;14.35;12.95;;;;;;;;;;5020085;28;20041;-75
2021/07/09 05:07:37;;;;;;;17.45;14.15;;;;;;;;;;5020639;28;20049;-76
2021/07/09 05:10:04;;;;;;;12.55;11.25;;;;;;;;;;5020422;28;20124;-76
2021/07/09 05:12:31;;;;;;;15.82;13.15;;;;;;;;;;5020846;28;20021;-76
2021/07/09 05:14:57;;;;;;;15.88;13.90;;;;;;;;;;5019024;28;20056;-76
2021/07/09 05:17:23;;;;;;;19.67;13.48;;;;;;;;;;5020692;28;20029;-75
2021/07/09 05:19:52;;;;;;;15.82;13.15;;;;;;;;;;5019225;28;20033;-75
2021/07/09 05:22:19;;;;;;;14.73;13.15;;;;;;;;;;5020291;28;20026;-76
2021/07/09 05:24:45;;;;;;;22.38;13.75;;;;;;;;;;5020783;28;20057;-77
2021/07/09 05:27:12;;;;;;;22.73;14.70;;;;;;;;;;5019426;28;20087;-77
2021/07/09 05:29:38;;;;;;;29.55;18.77;;;;;;;;;;5020654;28;20041;-75
2021/07/09 05:32:04;;;;;;;26.55;19.50;;;;;;;;;;5020361;28;20477;-75
2021/07/09 05:34:31;;;;;;;27.02;21.20;;;;;;;;;;5021332;28;20025;-75
2021/07/09 05:36:57;;;;;;;28.55;24.25;;;;;;;;;;5021773;28;20474;-75
2021/07/09 05:39:23;;;;;;;28.67;22.35;;;;;;;;;;5024219;28;20554;-75
2021/07/09 05:41:49;;;;;;;27.48;21.92;;;;;;;;;;5024261;28;20029;-75
2021/07/09 05:44:15;;;;;;;26.30;21.95;;;;;;;;;;5024476;28;20564;-76
2021/07/09 05:46:41;;;;;;;28.13;20.55;;;;;;;;;;5023338;28;20033;-75
2021/07/09 05:49:08;;;;;;;22.45;19.92;;;;;;;;;;5023892;28;20025;-75
2021/07/09 05:51:34;;;;;;;24.52;21.95;;;;;;;;;;5024462;28;20060;-75
2021/07/09 05:54:00;;;;;;;22.58;20.17;;;;;;;;;;5019897;28;20021;-76
2021/07/09 05:56:26;;;;;;;21.33;19.05;;;;;;;;;;5021306;28;20025;-76
2021/07/09 05:58:52;;;;;;;17.50;15.65;;;;;;;;;;5024135;28;20588;-76
2021/07/09 06:01:19;;;;;;;22.77;18.58;;;;;;;;;;5021718;28;20033;-76
2021/07/09 06:03:45;;;;;;;17.30;15.57;;;;;;;;;;5023162;28;20033;-76
2021/07/09 06:06:11;;;;;;;19.25;15.35;;;;;;;;;;5023365;28;20516;-76
2021/07/09 06:08:37;;;;;;;18.50;14.48;;;;;;;;;;5023467;28;20021;-76
2021/07/09 06:11:05;;;;;;;22.00;15.73;;;;;;;;;;5021656;28;20033;-77
2021/07/09 06:13:31;;;;;;;18.15;16.25;;;;;;;;;;5022957;28;20045;-77
2021/07/09 06:15:57;;;;;;;17.83;14.35;;;;;;;;;;5017326;28;20588;-76
2021/07/09 06:18:23;;;;;;;16.67;14.98;;;;;;;;;;5017067;28;20030;-77
2021/07/09 06:20:50;;;;;;;18.13;16.30;;;;;;;;;;5008085;28;20029;-77
2021/07/09 06:23:16;;;;;;;19.10;15.43;;;;;;;;;;5008080;28;20057;-77
2021/07/09 06:25:42;;;;;;;19.70;16.55;;;;;;;;;;5009277;28;20021;-76
2021/07/09 06:28:09;;;;;;;19.30;17.25;;;;;;;;;;5011956;28;20017;-77
2021/07/09 06:30:35;;;;;;;19.77;17.73;;;;;;;;;;5009992;28;20886;-73
2021/07/09 06:33:01;;;;;;;18.45;16.70;;;;;;;;;;5015579;28;20595;-78
2021/07/09 06:35:30;;;;;;;20.13;18.10;;;;;;;;;;5011199;28;20038;-76
2021/07/09 06:37:57;;;;;;;18.85;17.05;;;;;;;;;;5015183;28;20022;-78
2021/07/09 06:40:24;;;;;;;17.38;15.77;;;;;;;;;;5012069;28;20029;-80
2021/07/09 06:42:51;;;;;;;19.23;17.20;;;;;;;;;;5006754;28;20025;-77
2021/07/09 06:45:18;;;;;;;20.00;17.48;;;;;;;;;;5014657;28;20104;-76
2021/07/09 06:47:44;;;;;;;22.08;17.17;;;;;;;;;;5012098;28;20128;-77
2021/07/09 06:50:12;;;;;;;16.70;15.10;;;;;;;;;;5011117;28;20033;-77
2021/07/09 06:52:38;;;;;;;16.95;15.27;;;;;;;;;;5021355;28;20554;-77
2021/07/09 06:55:04;;;;;;;18.63;15.52;;;;;;;;;;5022635;28;20056;-75
2021/07/09 06:57:30;;;;;;;17.08;15.38;;;;;;;;;;5022905;28;20033;-78
2021/07/09 06:59:57;;;;;;;16.23;14.73;;;;;;;;;;5022149;28;20041;-73
2021/07/09 07:02:23;;;;;;;16.52;14.82;;;;;;;;;;5022635;28;20112;-75
2021/07/09 07:04:50;;;;;;;16.27;14.68;;;;;;;;;;5015788;28;20030;-75
2021/07/09 07:07:16;;;;;;;14.63;13.13;;;;;;;;;;5020390;28;20056;-73
2021/07/09 07:09:43;;;;;;;15.00;13.50;;;;;;;;;;5021942;28;20097;-73
2021/07/09 07:12:09;;;;;;;15.20;12.93;;;;;;;;;;5020498;28;20025;-77
2021/07/09 07:14:36;;;;;;;20.02;15.70;;;;;;;;;;5021471;28;20628;-74
2021/07/09 07:17:03;;;;;;;21.17;18.15;;;;;;;;;;5017844;28;20041;-74
2021/07/09 07:19:29;;;;;;;24.95;21.58;;;;;;;;;;5022612;28;20104;-74
2021/07/09 07:21:58;;;;;;;25.58;20.38;;;;;;;;;;5022146;28;20047;-74
2021/07/09 07:24:25;;;;;;;31.20;24.55;;;;;;;;;;5015189;28;20041;-74
2021/07/09 07:26:51;;;;;;;29.15;22.27;;;;;;;;;;5012680;28;20037;-74
2021/07/09 07:29:18;;;;;;;22.98;19.15;;;;;;;;;;5016559;28;20069;-74
2021/07/09 07:31:44;;;;;;;22.08;18.05;;;;;;;;;;5022448;28;20064;-74
2021/07/09 07:34:11;;;;;;;15.43;13.63;;;;;;;;;;5022104;28;20037;-74
2021/07/09 07:36:37;;;;;;;15.05;13.40;;;;;;;;;;5022110;28;20032;-73
2021/07/09 07:39:03;;;;;;;15.55;12.98;;;;;;;;;;5020025;28;20056;-74
2021/07/09 07:41:29;;;;;;;16.35;12.27;;;;;;;;;;5021747;28;20565;-73
2021/07/09 07:43:55;;;;;;;14.73;13.18;;;;;;;;;;5021452;28;20037;-74
2021/07/09 07:46:22;;;;;;;18.33;13.10;;;;;;;;;;5020369;28;20052;-74
2021/07/09 07:48:48;;;;;;;14.32;12.95;;;;;;;;;;5021827;28;20037;-73
2021/07/09 07:51:14;;;;;;;18.83;14.85;;;;;;;;;;5021335;28;20049;-73
2021/07/09 07:53:40;;;;;;;14.70;13.15;;;;;;;;;;5015926;28;20029;-73
2021/07/09 07:56:07;;;;;;;14.73;12.68;;;;;;;;;;5021119;28;20032;-74
2021/07/09 07:58:33;;;;;;;14.52;12.35;;;;;;;;;;5020658;28;20025;-74
2021/07/09 08:01:00;;;;;;;14.05;12.35;;;;;;;;;;5019914;28;20333;-74
2021/07/09 08:03:26;;;;;;;17.58;13.20;;;;;;;;;;5021617;28;20056;-74
2021/07/09 08:05:53;;;;;;;17.33;12.38;;;;;;;;;;5021415;28;20029;-73
2021/07/09 08:08:19;;;;;;;14.13;12.75;;;;;;;;;;5021394;28;20040;-74
2021/07/09 08:10:45;;;;;;;16.52;14.25;;;;;;;;;;5021527;28;20428;-73
2021/07/09 08:13:12;;;;;;;15.50;12.13;;;;;;;;;;5020832;28;20040;-74
2021/07/09 08:15:38;;;;;;;15.80;11.73;;;;;;;;;;5019642;28;20106;-74
2021/07/09 08:18:04;;;;;;;18.23;12.13;;;;;;;;;;5021254;28;20103;-74
2021/07/09 08:20:31;;;;;;;13.68;12.32;;;;;;;;;;5021446;28;20444;-74
2021/07/09 08:22:57;;;;;;;16.23;12.50;;;;;;;;;;5021039;28;20969;-73
2021/07/09 08:25:23;;;;;;;12.02;10.75;;;;;;;;;;5019732;28;21455;-74
2021/07/09 08:27:49;;;;;;;13.48;11.48;;;;;;;;;;5021276;28;20033;-73
2021/07/09 08:30:16;;;;;;;21.20;11.40;;;;;;;;;;5021317;28;20507;-74
2021/07/09 08:32:42;;;;;;;15.88;10.57;;;;;;;;;;5019267;28;20029;-74
2021/07/09 08:35:09;;;;;;;14.70;13.00;;;;;;;;;;5020932;28;20032;-73
2021/07/09 08:37:35;;;;;;;13.02;9.75;;;;;;;;;;5021463;28;20104;-73
2021/07/09 08:40:01;;;;;;;13.45;10.48;;;;;;;;;;5021516;28;20083;-73
2021/07/09 08:42:27;;;;;;;10.95;9.82;;;;;;;;;;5020881;28;20021;-73
2021/07/09 08:44:54;;;;;;;11.63;10.05;;;;;;;;;;5018779;28;20040;-73
2021/07/09 08:47:20;;;;;;;12.93;10.20;;;;;;;;;;5019225;28;20017;-73
2021/07/09 08:49:49;;;;;;;12.05;9.32;;;;;;;;;;5021025;28;20033;-73
2021/07/09 08:52:15;;;;;;;12.98;10.60;;;;;;;;;;5020399;28;20026;-73
2021/07/09 08:54:41;;;;;;;13.35;9.48;;;;;;;;;;5020581;28;20025;-73
2021/07/09 08:57:08;;;;;;;16.35;11.32;;;;;;;;;;5019503;28;20030;-77
2021/07/09 08:59:34;;;;;;;13.32;10.15;;;;;;;;;;5020470;28;20030;-73
2021/07/09 09:02:03;;;;;;;13.70;10.27;;;;;;;;;;5021300;28;20040;-73
2021/07/09 09:04:37;;;;;;;16.70;10.82;;;;;;;;;;5018212;28;20030;-73
2021/07/09 09:07:03;;;;;;;12.85;8.85;;;;;;;;;;5021285;28;20104;-73
2021/07/09 09:09:30;;;;;;;11.68;9.43;;;;;;;;;;5021327;28;20044;-73
2021/07/09 09:12:15;;;;;;;11.95;9.90;;;;;;;;;;5024499;28;20079;-73
2021/07/09 09:14:46;;;;;;;14.95;11.07;;;;;;;;;;5024344;28;20029;-72
2021/07/09 09:17:32;;;;;;;12.35;10.18;;;;;;;;;;5024756;28;20029;-72
2021/07/09 09:20:05;;;;;;;12.05;10.50;;;;;;;;;;5023451;28;20770;-72
2021/07/09 09:22:32;;;;;;;14.27;10.98;;;;;;;;;;5024576;28;20067;-72
2021/07/09 09:25:01;;;;;;;15.40;12.02;;;;;;;;;;5024204;28;20033;-72
2021/07/09 09:27:27;;;;;;;13.60;12.30;;;;;;;;;;5024189;28;20031;-72
2021/07/09 09:29:53;;;;;;;13.93;11.32;;;;;;;;;;5024649;28;20044;-72
2021/07/09 09:32:19;;;;;;;13.10;11.75;;;;;;;;;;5022937;28;20025;-72
2021/07/09 09:34:50;;;;;;;12.35;10.85;;;;;;;;;;5024426;28;20033;-72
2021/07/09 09:37:20;;;;;;;13.52;11.10;;;;;;;;;;5024494;28;20520;-71
2021/07/09 09:39:47;;;;;;;13.20;11.65;;;;;;;;;;5023954;28;20091;-73
2021/07/09 09:42:18;;;;;;;17.23;10.50;;;;;;;;;;5022536;28;20029;-73
2021/07/09 09:45:00;;;;;;;12.95;10.98;;;;;;;;;;5024310;28;20279;-73
2021/07/09 09:47:27;;;;;;;13.00;10.48;;;;;;;;;;5023996;28;20581;-73
2021/07/09 09:49:58;;;;;;;11.07;10.00;;;;;;;;;;5023912;28;20152;-73
2021/07/09 09:52:33;;;;;;;12.77;9.73;;;;;;;;;;5023927;28;20022;-72
2021/07/09 09:55:00;;;;;;;12.90;10.88;;;;;;;;;;5022577;28;20465;-73
2021/07/09 09:57:26;;;;;;;10.57;9.55;;;;;;;;;;5023233;28;20079;-73
2021/07/09 09:59:52;;;;;;;14.15;11.00;;;;;;;;;;5023907;28;20040;-72
2021/07/09 10:02:22;;;;;;;13.00;10.40;;;;;;;;;;5023987;28;20022;-73
2021/07/09 10:04:49;;;;;;;12.20;9.95;;;;;;;;;;5021995;28;20839;-74
2021/07/09 10:07:15;;;;;;;13.43;10.23;;;;;;;;;;5023781;28;20025;-74
2021/07/09 10:09:42;;;;;;;18.52;11.73;;;;;;;;;;5023702;28;20049;-73
2021/07/09 10:12:10;;;;;;;10.90;9.90;;;;;;;;;;5023974;28;20105;-74
2021/07/09 10:14:39;;;;;;;13.75;9.90;;;;;;;;;;5021963;28;20055;-74
2021/07/09 10:17:05;;;;;;;16.85;10.70;;;;;;;;;;5023354;28;20029;-75
2021/07/09 10:19:39;;;;;;;12.27;10.13;;;;;;;;;;5023536;28;20087;-74
2021/07/09 10:22:06;;;;;;;11.90;10.10;;;;;;;;;;5022774;28;20089;-75
2021/07/09 10:24:33;;;;;;;11.00;9.90;;;;;;;;;;5023160;28;20505;-75
2021/07/09 10:27:00;;;;;;;10.38;8.95;;;;;;;;;;5021808;28;20026;-74
2021/07/09 10:29:30;;;;;;;11.70;9.35;;;;;;;;;;5023610;28;20029;-74
2021/07/09 10:31:56;;;;;;;15.20;10.40;;;;;;;;;;5024064;28;20544;-75
2021/07/09 10:34:26;;;;;;;10.77;8.65;;;;;;;;;;5022448;28;20025;-75
2021/07/09 10:37:02;;;;;;;15.95;10.02;;;;;;;;;;5022516;28;20464;-75
2021/07/09 10:39:31;;;;;;;11.60;9.00;;;;;;;;;;5022873;28;20017;-74
2021/07/09 10:42:12;;;;;;;13.30;8.90;;;;;;;;;;5023073;28;20033;-75
2021/07/09 10:44:38;;;;;;;11.13;8.55;;;;;;;;;;5022090;28;20608;-74
2021/07/09 10:47:17;;;;;;;9.50;8.63;;;;;;;;;;5023570;28;20101;-74
2021/07/09 10:49:55;;;;;;;10.27;8.48;;;;;;;;;;5023640;28;20133;-74
2021/07/09 10:52:41;;;;;;;9.13;8.18;;;;;;;;;;5023277;28;20377;-75
2021/07/09 10:55:30;;;;;;;13.05;9.23;;;;;;;;;;5015927;28;20041;-74
2021/07/09 10:58:09;;;;;;;11.25;9.05;;;;;;;;;;5023270;28;20038;-74
2021/07/09 11:00:45;;;;;;;10.13;8.50;;;;;;;;;;5022213;28;20026;-74
2021/07/09 11:03:11;;;;;;;12.20;8.32;;;;;;;;;;5021836;28;20029;-75
2021/07/09 11:05:44;;;;;;;8.70;7.45;;;;;;;;;;5022816;28;20603;-74
2021/07/09 11:08:28;;;;;;;9.77;8.82;;;;;;;;;;5021455;28;20093;-74
2021/07/09 11:11:13;;;;;;;9.77;7.00;;;;;;;;;;5023282;28;20048;-75
2021/07/09 11:13:44;;;;;;;10.05;8.18;;;;;;;;;;5023124;28;20096;-74
2021/07/09 11:16:25;;;;;;;10.35;7.65;;;;;;;;;;5021616;28;20053;-75
2021/07/09 11:18:51;;;;;;;9.05;8.15;;;;;;;;;;5022568;28;20057;-75
2021/07/09 11:21:38;;;;;;;8.75;7.85;;;;;;;;;;5021973;28;20505;-75
2021/07/09 11:24:07;;;;;;;8.93;8.07;;;;;;;;;;5001546;28;20037;-75
2021/07/09 11:26:33;;;;;;;10.82;7.40;;;;;;;;;;5022701;28;20034;-75
2021/07/09 11:28:59;;;;;;;8.27;7.07;;;;;;;;;;5023129;28;20014;-76
2021/07/09 11:31:30;;;;;;;7.57;6.88;;;;;;;;;;5021212;28;20227;-74
2021/07/09 11:34:03;;;;;;;10.18;7.72;;;;;;;;;;5021550;28;20027;-74
2021/07/09 11:36:40;;;;;;;12.63;6.90;;;;;;;;;;5022817;28;20025;-74
2021/07/09 11:39:07;;;;;;;7.78;6.13;;;;;;;;;;5022391;28;20037;-74
2021/07/09 11:41:34;;;;;;;7.25;6.55;;;;;;;;;;5021749;28;20431;-75
2021/07/09 11:44:01;;;;;;;8.00;6.38;;;;;;;;;;5021416;28;20082;-74
2021/07/09 11:46:27;;;;;;;7.65;5.97;;;;;;;;;;5022352;28;20029;-74
2021/07/09 11:48:54;;;;;;;6.53;5.90;;;;;;;;;;5022302;28;20025;-74
2021/07/09 11:51:20;;;;;;;7.05;5.60;;;;;;;;;;5022718;28;20045;-74
2021/07/09 11:54:03;;;;;;;6.43;5.68;;;;;;;;;;5022181;28;20023;-74
2021/07/09 11:56:42;;;;;;;7.38;5.57;;;;;;;;;;5020752;28;20557;-74
2021/07/09 11:59:26;;;;;;;6.75;5.00;;;;;;;;;;5020720;28;20025;-74
2021/07/09 12:02:02;;;;;;;7.25;5.30;;;;;;;;;;5022698;28;20021;-74
2021/07/09 12:04:28;;;;;;;8.13;5.53;;;;;;;;;;5021987;28;20108;-74
2021/07/09 12:07:12;;;;;;;6.47;5.30;;;;;;;;;;5020657;28;20651;-74
2021/07/09 12:09:39;;;;;;;5.50;4.90;;;;;;;;;;5021776;28;20029;-74
2021/07/09 12:12:05;;;;;;;6.38;5.03;;;;;;;;;;5021851;28;20565;-74
2021/07/09 12:14:31;;;;;;;9.02;5.80;;;;;;;;;;5021726;28;20022;-74
2021/07/09 12:16:59;;;;;;;8.75;5.30;;;;;;;;;;5020663;28;20029;-75
2021/07/09 12:19:25;;;;;;;7.13;5.18;;;;;;;;;;5021616;28;20468;-74
2021/07/09 12:21:53;;;;;;;6.18;5.22;;;;;;;;;;5021581;28;20045;-74
2021/07/09 12:24:20;;;;;;;10.43;5.50;;;;;;;;;;5021966;28;20021;-74
2021/07/09 12:26:48;;;;;;;7.80;5.60;;;;;;;;;;5021171;28;20563;-75
2021/07/09 12:29:14;;;;;;;12.23;6.50;;;;;;;;;;5020126;28;20024;-74
2021/07/09 12:31:41;;;;;;;8.82;5.05;;;;;;;;;;5021927;28;20036;-74
2021/07/09 12:34:22;;;;;;;7.38;5.68;;;;;;;;;;5022112;28;20017;-74
2021/07/09 12:37:01;;;;;;;8.63;5.22;;;;;;;;;;5021339;28;20462;-74
2021/07/09 12:39:27;;;;;;;9.35;5.95;;;;;;;;;;5021816;28;20020;-74
2021/07/09 12:41:54;;;;;;;7.60;4.97;;;;;;;;;;5021383;28;20076;-74
2021/07/09 12:44:20;;;;;;;9.45;5.75;;;;;;;;;;5019870;28;20021;-75
2021/07/09 12:46:47;;;;;;;9.02;5.97;;;;;;;;;;5021769;28;20847;-75
2021/07/09 12:49:14;;;;;;;10.80;6.15;;;;;;;;;;5021624;28;20013;-74
2021/07/09 12:51:44;;;;;;;8.73;5.70;;;;;;;;;;5021397;28;20030;-75
2021/07/09 12:54:14;;;;;;;8.65;5.97;;;;;;;;;;5019777;28;20429;-75
2021/07/09 12:56:42;;;;;;;8.23;6.35;;;;;;;;;;5021552;28;20029;-74
2021/07/09 12:59:13;;;;;;;7.35;5.40;;;;;;;;;;5021474;28;20021;-74
2021/07/09 13:01:43;;;;;;;7.30;5.80;;;;;;;;;;5019918;28;20363;-74
2021/07/09 13:04:16;;;;;;;8.68;5.32;;;;;;;;;;5021233;28;20026;-74
2021/07/09 13:06:42;;;;;;;7.45;5.13;;;;;;;;;;5021335;28;20458;-74
2021/07/09 13:09:16;;;;;;;7.63;5.25;;;;;;;;;;5019727;28;20529;-75
2021/07/09 13:11:44;;;;;;;6.60;5.07;;;;;;;;;;5021131;28;20152;-75
2021/07/09 13:14:10;;;;;;;10.65;5.65;;;;;;;;;;5021425;28;20026;-75
2021/07/09 13:16:56;;;;;;;7.10;4.65;;;;;;;;;;5020438;28;20471;-75
2021/07/09 13:19:37;;;;;;;7.60;5.45;;;;;;;;;;5020877;28;20026;-74
2021/07/09 13:22:08;;;;;;;9.98;5.72;;;;;;;;;;5019389;28;20539;-75
2021/07/09 13:24:36;;;;;;;10.00;5.38;;;;;;;;;;5021236;28;20086;-74
2021/07/09 13:27:03;;;;;;;7.15;5.28;;;;;;;;;;5021027;28;20033;-74
2021/07/09 13:29:30;;;;;;;6.18;4.97;;;;;;;;;;5019201;28;20052;-74
2021/07/09 13:31:57;;;;;;;8.15;5.78;;;;;;;;;;5021040;28;20033;-75
2021/07/09 13:34:24;;;;;;;7.80;5.85;;;;;;;;;;5021712;28;20453;-75
2021/07/09 13:36:50;;;;;;;7.45;5.32;;;;;;;;;;5021136;28;20112;-75
2021/07/09 13:39:17;;;;;;;10.52;5.80;;;;;;;;;;5020906;28;20022;-74
2021/07/09 13:41:44;;;;;;;10.82;5.25;;;;;;;;;;5020944;28;20471;-74
2021/07/09 13:44:10;;;;;;;9.00;5.93;;;;;;;;;;5019211;28;20081;-74
2021/07/09 13:46:37;;;;;;;11.80;5.30;;;;;;;;;;5019688;28;20029;-75
2021/07/09 13:49:04;;;;;;;6.88;5.18;;;;;;;;;;5020382;28;20124;-74
2021/07/09 13:51:31;;;;;;;9.07;5.35;;;;;;;;;;5021098;28;20033;-74
2021/07/09 13:53:58;;;;;;;10.10;5.63;;;;;;;;;;5020690;28;20100;-74
2021/07/09 13:56:24;;;;;;;9.40;5.72;;;;;;;;;;5021562;28;20494;-74
2021/07/09 13:58:50;;;;;;;10.65;6.47;;;;;;;;;;5023940;28;20021;-75
2021/07/09 14:01:16;;;;;;;7.35;5.60;;;;;;;;;;5024581;28;20024;-75
2021/07/09 14:03:43;;;;;;;8.52;5.55;;;;;;;;;;5024800;28;20026;-75
2021/07/09 14:06:10;;;;;;;7.38;5.05;;;;;;;;;;5023573;28;20033;-74
2021/07/09 14:08:36;;;;;;;7.78;5.07;;;;;;;;;;5023939;28;20110;-74
2021/07/09 14:11:02;;;;;;;12.73;5.30;;;;;;;;;;5024277;28;20044;-75
2021/07/09 14:13:30;;;;;;;8.60;4.70;;;;;;;;;;5023972;28;20036;-75
2021/07/09 14:15:56;;;;;;;11.23;4.63;;;;;;;;;;5024094;28;20057;-74
2021/07/09 14:18:23;;;;;;;9.13;4.80;;;;;;;;;;5021144;28;20034;-74
2021/07/09 14:20:49;;;;;;;11.77;4.80;;;;;;;;;;5024366;28;20642;-74
2021/07/09 14:23:16;;;;;;;7.28;4.55;;;;;;;;;;5024211;28;20029;-74
2021/07/09 14:25:43;;;;;;;8.15;4.45;;;;;;;;;;5024505;28;20829;-74
2021/07/09 14:28:09;;;;;;;8.88;4.57;;;;;;;;;;5024076;28;20152;-75